Time;durP1;ratioP1;P1;durP2;ratioP2;P2;SDS_P1;SDS_P2;PMS_P1;PMS_P2;Temp;Humidity;BMP_temperature;BMP_pressure;BME280_temperature;BME280_humidity;BME280_pressure;Samples;Min_cycle;Max_cycle;Signal;HPM_P1;HPM_P2
2021/05/18 05:00:59;;;;;;;15.30;11.48;;;;;;;14.89;91.42;98949.14;1621613;86;21125;-44
2021/05/18 05:06:16;;;;;;;14.05;11.73;;;;;;;15.01;90.06;98947.81;1632710;86;21633;-38
2021/05/18 05:08:59;;;;;;;16.48;11.43;;;;;;;15.08;90.23;98945.82;1622281;86;21243;-37
2021/05/18 05:14:16;;;;;;;17.77;12.73;;;;;;;15.36;89.47;98931.91;1622405;86;21057;-43
2021/05/18 05:16:38;;;;;;;16.60;11.50;;;;;;;15.51;89.58;98932.21;1625799;86;21122;-36
2021/05/18 05:19:08;;;;;;;15.05;10.70;;;;;;;15.68;89.09;98927.13;1627406;86;21422;-37
2021/05/18 05:21:36;;;;;;;18.48;13.48;;;;;;;15.84;88.01;98926.02;1654775;83;21733;-37
2021/05/18 05:24:03;;;;;;;17.48;13.13;;;;;;;15.97;87.53;98925.87;1697276;82;21059;-37
2021/05/18 05:26:30;;;;;;;15.48;12.85;;;;;;;16.08;86.37;98928.90;1698562;82;21126;-42
2021/05/18 05:30:06;;;;;;;17.65;12.78;;;;;;;16.13;85.85;98930.88;1695353;82;21710;-36
2021/05/18 05:33:58;;;;;;;19.80;13.45;;;;;;;16.16;86.22;98927.23;1692726;82;21233;-36
2021/05/18 05:37:57;;;;;;;17.30;13.13;;;;;;;16.22;86.27;98933.55;1695862;82;21179;-38
2021/05/18 05:41:50;;;;;;;14.70;10.10;;;;;;;16.20;86.54;98932.78;1690874;82;21981;-37
2021/05/18 05:44:41;;;;;;;17.85;10.53;;;;;;;16.20;86.68;98940.69;1692030;82;21054;-37
2021/05/18 05:47:07;;;;;;;;;;;;;;;16.23;87.30;98935.27;1706194;82;21082;-36
2021/05/18 05:49:40;;;;;;;13.68;10.38;;;;;;;16.26;86.57;98936.92;1706022;82;20557;-37
2021/05/18 05:52:09;;;;;;;13.30;9.28;;;;;;;16.26;85.86;98937.78;1697775;82;21078;-43
2021/05/18 05:54:35;;;;;;;17.75;11.97;;;;;;;16.27;87.08;98928.94;1696861;82;21296;-37
2021/05/18 05:57:03;;;;;;;14.43;11.65;;;;;;;16.33;87.39;98931.30;1699851;82;21083;-43
2021/05/18 05:59:29;;;;;;;13.70;12.07;;;;;;;16.37;86.58;98931.56;1657787;85;21848;-37
2021/05/18 06:01:58;;;;;;;16.50;11.15;;;;;;;16.37;86.09;98937.30;1703231;82;21075;-38
2021/05/18 06:04:24;;;;;;;10.60;9.20;;;;;;;16.35;85.88;98934.75;1707723;82;21869;-37
2021/05/18 06:06:53;;;;;;;14.70;10.08;;;;;;;16.34;84.72;98934.32;1705006;82;21440;-37
2021/05/18 06:09:21;;;;;;;15.23;12.68;;;;;;;16.31;84.22;98925.24;1704586;82;21034;-37
2021/05/18 06:12:00;;;;;;;12.50;10.70;;;;;;;16.26;84.44;98921.09;1705774;82;21128;-38
2021/05/18 06:41:34;;;;;;;13.28;9.68;;;;;;;16.43;84.74;98906.67;1704119;82;21078;-37
2021/05/18 06:48:57;;;;;;;10.93;8.98;;;;;;;16.66;84.61;98903.83;1674148;83;21163;-38
2021/05/18 06:51:24;;;;;;;10.23;8.35;;;;;;;16.74;84.01;98896.89;1678520;83;21698;-44
2021/05/18 06:53:51;;;;;;;12.37;9.75;;;;;;;16.79;80.89;98897.53;1675710;83;21109;-44
2021/05/18 06:56:18;;;;;;;13.78;8.43;;;;;;;16.74;81.17;98895.56;1674427;83;21610;-44
2021/05/18 07:00:08;;;;;;;12.50;10.08;;;;;;;16.67;81.68;98891.02;1674232;83;21107;-44
2021/05/18 07:01:17;;;;;;;15.35;9.33;;;;;;;16.65;82.00;98890.70;1640869;85;21039;-38
2021/05/18 07:03:51;;;;;;;10.70;8.08;;;;;;;16.69;82.77;98883.01;1674696;83;21685;-44
2021/05/18 07:07:04;;;;;;;9.93;7.95;;;;;;;16.80;83.58;98888.67;1675551;83;21071;-37
2021/05/18 07:11:08;;;;;;;10.23;8.08;;;;;;;17.06;82.32;98890.55;1679725;83;21051;-37
2021/05/18 07:13:36;;;;;;;11.80;8.93;;;;;;;17.12;81.64;98887.14;1674785;83;21701;-37
2021/05/18 07:16:10;;;;;;;10.90;8.23;;;;;;;17.10;80.99;98892.94;1670747;84;21098;-37
2021/05/18 07:18:37;;;;;;;;;;;;;;;17.01;80.14;98889.44;1675142;83;21170;-38
2021/05/18 07:21:34;;;;;;;13.85;9.58;;;;;;;16.92;80.14;98892.05;1673243;83;20212;-43
2021/05/18 07:24:43;;;;;;;15.50;9.28;;;;;;;16.84;81.23;98892.89;1670168;83;21618;-37
2021/05/18 07:28:20;;;;;;;13.72;10.93;;;;;;;16.78;80.84;98882.62;1673803;83;22278;-38
2021/05/18 07:31:19;;;;;;;10.40;9.20;;;;;;;16.74;81.26;98883.22;1674794;83;21079;-43
2021/05/18 07:34:47;;;;;;;12.23;8.30;;;;;;;16.81;80.67;98882.45;1671226;83;21119;-43
2021/05/18 07:38:14;;;;;;;8.65;7.05;;;;;;;16.90;80.37;98875.89;1673322;83;21888;-44
2021/05/18 07:40:42;;;;;;;12.05;9.00;;;;;;;17.00;78.46;98876.70;1675656;84;21015;-37
2021/05/18 07:43:17;;;;;;;11.12;8.45;;;;;;;17.07;77.21;98878.58;1674424;84;21526;-42
2021/05/18 07:45:58;;;;;;;9.45;7.10;;;;;;;17.11;77.36;98872.69;1647985;83;21028;-37
2021/05/18 07:48:42;;;;;;;11.80;8.15;;;;;;;17.17;77.16;98877.20;1676496;83;21626;-42
2021/05/18 07:59:26;;;;;;;12.45;8.85;;;;;;;17.80;76.45;98858.20;1673474;83;21060;-37
2021/05/18 08:07:30;;;;;;;9.70;7.62;;;;;;;17.85;76.11;98861.89;1670617;84;21645;-36
2021/05/18 08:10:24;;;;;;;11.18;7.28;;;;;;;17.89;75.72;98860.34;1677133;83;21665;-37
2021/05/18 08:12:29;;;;;;;8.38;6.62;;;;;;;17.95;73.96;98860.48;1669590;82;21509;-37
2021/05/18 08:15:12;;;;;;;9.38;6.78;;;;;;;18.04;73.25;98856.05;1669822;83;21278;-43
2021/05/18 08:17:42;;;;;;;11.12;7.67;;;;;;;18.13;72.84;98850.71;1643162;84;21814;-38
2021/05/18 10:22:40;;;;;;;6.53;4.25;;;;;;;20.95;63.31;98701.50;1695074;82;21398;-42
2021/05/18 10:34:59;;;;;;;7.12;4.80;;;;;;;22.33;60.76;98665.22;1696434;82;21042;-37
2021/05/18 10:37:46;;;;;;;5.58;4.12;;;;;;;22.65;58.31;98664.98;1695335;82;21191;-37
2021/05/18 10:40:32;;;;;;;5.53;3.95;;;;;;;22.54;57.63;98664.45;1665966;83;21700;-43
2021/05/18 10:43:35;;;;;;;4.42;3.42;;;;;;;22.55;57.30;98667.95;1696017;82;21131;-38
2021/05/18 10:46:16;;;;;;;5.83;4.03;;;;;;;22.30;58.43;98666.27;1700801;83;21397;-42
2021/05/18 10:48:53;;;;;;;5.37;4.33;;;;;;;22.10;58.19;98660.25;1664782;83;21784;-37
2021/05/18 10:51:44;;;;;;;5.70;4.42;;;;;;;21.82;58.63;98658.21;1661193;84;21027;-38
2021/05/18 10:54:22;;;;;;;3.83;3.42;;;;;;;21.53;59.12;98648.80;1660983;84;21701;-41
2021/05/18 10:56:58;;;;;;;4.60;3.92;;;;;;;21.17;58.33;98649.91;1658547;85;21729;-38
2021/05/18 10:59:46;;;;;;;8.55;3.95;;;;;;;20.91;59.94;98665.45;1662236;85;21404;-42
2021/05/18 11:02:37;;;;;;;5.15;4.12;;;;;;;20.69;61.90;98660.24;1664635;84;21083;-38
2021/05/18 11:05:11;;;;;;;5.35;4.33;;;;;;;20.44;61.57;98653.03;1662160;85;21071;-42
2021/05/18 11:07:44;;;;;;;5.85;4.17;;;;;;;20.23;62.78;98652.27;1663002;85;21479;-42
2021/05/18 11:10:14;;;;;;;;;;;;;;;20.09;63.24;98659.81;1668204;85;21465;-43
2021/05/18 11:12:44;;;;;;;8.30;3.62;;;;;;;19.87;60.20;98694.82;1663819;85;20155;-37
2021/05/18 11:15:28;;;;;;;8.55;3.50;;;;;;;19.29;62.65;98687.32;1661639;85;21099;-39
2021/05/18 11:18:06;;;;;;;10.80;4.00;;;;;;;18.31;69.90;98689.55;1643360;85;21102;-38
2021/05/18 11:26:06;;;;;;;7.72;3.27;;;;;;;15.49;82.00;98695.55;1664539;84;21382;-41
2021/05/18 11:28:46;;;;;;;4.40;2.22;;;;;;;15.25;85.39;98683.87;1670183;85;21091;-43
2021/05/18 11:31:20;;;;;;;5.75;2.12;;;;;;;15.11;87.36;98683.60;1659761;85;21111;-43
2021/05/18 11:33:50;;;;;;;9.70;2.25;;;;;;;14.95;86.47;98677.28;1669149;84;21079;-43
2021/05/18 11:36:30;;;;;;;6.05;1.75;;;;;;;14.82;87.16;98673.02;1617025;87;21123;-38
2021/05/18 11:39:07;;;;;;;6.70;2.22;;;;;;;14.73;87.18;98677.38;1631161;87;21077;-38
2021/05/18 11:41:38;;;;;;;6.80;2.25;;;;;;;14.67;87.57;98667.07;1664751;85;21614;-43
2021/05/18 11:44:07;;;;;;;3.62;1.95;;;;;;;14.61;87.91;98672.14;1665291;85;21570;-38
2021/05/18 11:46:35;;;;;;;4.50;3.05;;;;;;;14.59;88.84;98685.37;1660743;85;21087;-38
2021/05/18 11:49:12;;;;;;;5.40;3.40;;;;;;;14.55;88.99;98704.86;1694118;83;21091;-43
2021/05/18 11:51:49;;;;;;;4.67;2.95;;;;;;;14.52;89.67;98708.91;1708316;83;21027;-43
2021/05/18 11:54:18;;;;;;;4.90;2.83;;;;;;;14.46;90.08;98722.75;1695867;82;21105;-43
2021/05/18 11:56:45;;;;;;;5.20;2.65;;;;;;;14.37;90.16;98724.81;1702635;82;21102;-38
2021/05/18 11:59:17;;;;;;;9.43;2.55;;;;;;;14.32;90.59;98725.48;1703904;82;21527;-43
2021/05/18 12:01:55;;;;;;;4.53;2.77;;;;;;;14.30;90.74;98722.05;1703013;83;21151;-38
2021/05/18 12:04:24;;;;;;;4.33;3.15;;;;;;;14.30;91.97;98709.35;1710878;82;21046;-38
2021/05/18 12:07:01;;;;;;;4.72;3.85;;;;;;;14.33;93.59;98702.20;1702521;83;21119;-38
2021/05/18 12:09:34;;;;;;;6.30;4.03;;;;;;;14.41;94.44;98704.52;1713593;83;21108;-38
2021/05/18 12:12:08;;;;;;;5.93;3.93;;;;;;;14.51;95.10;98694.05;1713797;83;21090;-38
2021/05/18 12:14:44;;;;;;;;;;;;;;;14.60;95.41;98696.75;1715793;83;21015;-38
2021/05/18 12:17:11;;;;;;;5.67;3.80;;;;;;;14.67;95.14;98693.39;1697371;83;20191;-43
2021/05/18 12:19:39;;;;;;;4.78;3.35;;;;;;;14.71;94.49;98688.41;1711588;83;21058;-38
2021/05/18 12:22:07;;;;;;;5.15;3.58;;;;;;;14.72;93.23;98690.97;1714432;83;21102;-42
2021/05/18 12:24:40;;;;;;;5.47;3.05;;;;;;;14.74;92.60;98697.51;1712988;83;21099;-37
2021/05/18 12:27:06;;;;;;;;;;;;;;;14.74;92.61;98690.46;1712234;83;21081;-38
2021/05/18 12:29:41;;;;;;;8.50;3.70;;;;;;;14.76;92.09;98703.55;1713720;83;20200;-38
2021/05/18 12:32:23;;;;;;;4.87;3.02;;;;;;;14.74;91.75;98707.58;1711849;83;21063;-43
2021/05/18 12:35:05;;;;;;;10.28;3.37;;;;;;;14.74;92.05;98702.31;1708079;83;21047;-42
2021/05/18 12:37:44;;;;;;;3.87;2.98;;;;;;;14.75;91.76;98705.80;1705169;83;21098;-42
2021/05/18 12:40:19;;;;;;;3.98;2.83;;;;;;;14.74;91.85;98708.03;1709026;83;21150;-42
2021/05/18 12:42:48;;;;;;;5.10;3.12;;;;;;;14.73;92.15;98703.70;1712987;83;21083;-39
2021/05/18 12:45:21;;;;;;;8.23;3.60;;;;;;;14.71;92.40;98705.52;1714891;83;21051;-43
2021/05/18 12:47:59;;;;;;;6.53;3.72;;;;;;;14.71;92.90;98710.31;1713769;83;21095;-38
2021/05/18 12:50:47;;;;;;;4.08;3.67;;;;;;;14.69;93.61;98699.47;1713817;83;21641;-39
2021/05/18 12:53:28;;;;;;;4.80;3.30;;;;;;;14.69;94.45;98702.95;1674397;83;21099;-43
2021/05/18 12:55:56;;;;;;;8.20;3.40;;;;;;;14.69;95.08;98699.47;1669429;85;21599;-38
2021/05/18 12:58:30;;;;;;;7.05;3.00;;;;;;;14.69;95.46;98694.20;1681523;84;21130;-43
2021/05/18 13:01:14;;;;;;;10.23;2.98;;;;;;;14.69;96.15;98692.42;1713882;83;21559;-38
2021/05/18 13:03:42;;;;;;;4.65;3.33;;;;;;;14.70;96.09;98687.55;1714426;83;21664;-43
2021/05/18 13:06:09;;;;;;;4.83;2.90;;;;;;;14.71;95.83;98692.36;1709523;82;21070;-43
2021/05/18 13:08:41;;;;;;;5.55;3.65;;;;;;;14.72;96.01;98696.23;1730161;82;21141;-43
2021/05/18 13:13:56;;;;;;;7.85;4.45;;;;;;;14.78;96.26;98688.08;1705716;82;21067;-42
2021/05/18 13:16:26;;;;;;;6.08;4.45;;;;;;;14.84;96.37;98676.42;1713083;83;21102;-43
2021/05/18 13:19:06;;;;;;;7.67;3.83;;;;;;;14.90;96.47;98664.31;1714915;83;21047;-38
2021/05/18 13:21:50;;;;;;;6.53;3.77;;;;;;;14.98;96.03;98673.22;1713600;83;21106;-38
2021/05/18 13:26:41;;;;;;;3.22;2.58;;;;;;;15.17;96.45;98692.55;1713850;83;21094;-43
2021/05/18 13:29:20;;;;;;;3.62;2.30;;;;;;;15.19;94.60;98698.63;1712112;83;21058;-38
2021/05/18 13:31:52;;;;;;;6.30;2.62;;;;;;;15.17;93.17;98689.91;1665568;83;21098;-38
2021/05/18 13:34:19;;;;;;;5.65;2.37;;;;;;;15.14;93.46;98689.61;1712797;83;21022;-38
2021/05/18 13:36:46;;;;;;;9.43;2.90;;;;;;;15.17;93.35;98706.58;1701165;82;21106;-43
2021/05/18 13:39:15;;;;;;;5.10;3.20;;;;;;;15.16;93.21;98706.65;1698926;83;21027;-39
2021/05/18 13:41:42;;;;;;;3.27;2.22;;;;;;;15.18;93.54;98706.11;1678394;85;21122;-43
2021/05/18 13:44:09;;;;;;;5.28;2.40;;;;;;;15.20;93.94;98696.84;1713725;83;21570;-38
2021/05/18 13:46:36;;;;;;;3.25;2.47;;;;;;;15.24;93.86;98687.40;1713393;83;21070;-38
2021/05/18 13:49:03;;;;;;;7.78;3.62;;;;;;;15.29;93.63;98691.16;1713318;83;21062;-38
2021/05/18 13:51:31;;;;;;;8.68;3.55;;;;;;;15.33;94.11;98684.37;1706465;83;21090;-43
2021/05/18 13:54:00;;;;;;;5.40;3.60;;;;;;;15.38;93.86;98688.98;1705671;84;21637;-43
